sensor_id;sensor_type;location;lat;lon;timestamp;P1;durP1;ratioP1;P2;durP2;ratioP2
3949;SDS011;53057;50.988;6.314;2022-07-17T00:01:46;7.23;;;2.43;;
3949;SDS011;53057;50.988;6.314;2022-07-17T00:04:14;7.30;;;3.10;;
3949;SDS011;53057;50.988;6.314;2022-07-17T00:06:42;8.60;;;3.70;;
3949;SDS011;53057;50.988;6.314;2022-07-17T00:09:10;6.33;;;2.80;;
3949;SDS011;53057;50.988;6.314;2022-07-17T00:11:41;7.40;;;2.53;;
3949;SDS011;53057;50.988;6.314;2022-07-17T00:14:08;15.50;;;2.33;;
3949;SDS011;53057;50.988;6.314;2022-07-17T00:16:41;6.90;;;2.73;;
3949;SDS011;53057;50.988;6.314;2022-07-17T00:19:10;10.23;;;2.70;;
3949;SDS011;53057;50.988;6.314;2022-07-17T00:21:42;7.07;;;2.70;;
3949;SDS011;53057;50.988;6.314;2022-07-17T00:28:36;10.10;;;3.53;;
3949;SDS011;53057;50.988;6.314;2022-07-17T00:31:28;5.90;;;3.03;;
3949;SDS011;53057;50.988;6.314;2022-07-17T00:34:06;2.60;;;2.23;;
3949;SDS011;53057;50.988;6.314;2022-07-17T00:36:35;26.37;;;3.43;;
3949;SDS011;53057;50.988;6.314;2022-07-17T00:39:03;13.80;;;3.73;;
3949;SDS011;53057;50.988;6.314;2022-07-17T00:41:32;7.23;;;3.03;;
3949;SDS011;53057;50.988;6.314;2022-07-17T00:44:07;9.37;;;3.20;;
3949;SDS011;53057;50.988;6.314;2022-07-17T00:46:44;6.17;;;2.73;;
3949;SDS011;53057;50.988;6.314;2022-07-17T00:49:12;9.43;;;3.33;;
3949;SDS011;53057;50.988;6.314;2022-07-17T00:51:39;9.03;;;3.43;;
3949;SDS011;53057;50.988;6.314;2022-07-17T00:54:07;21.03;;;3.50;;
3949;SDS011;53057;50.988;6.314;2022-07-17T00:56:36;4.47;;;2.73;;
3949;SDS011;53057;50.988;6.314;2022-07-17T00:59:04;5.87;;;3.50;;
3949;SDS011;53057;50.988;6.314;2022-07-17T01:01:33;19.20;;;4.50;;
3949;SDS011;53057;50.988;6.314;2022-07-17T01:04:01;12.50;;;2.97;;
3949;SDS011;53057;50.988;6.314;2022-07-17T01:06:30;16.60;;;3.43;;
3949;SDS011;53057;50.988;6.314;2022-07-17T01:08:58;9.43;;;3.30;;
3949;SDS011;53057;50.988;6.314;2022-07-17T01:11:24;5.47;;;3.00;;
3949;SDS011;53057;50.988;6.314;2022-07-17T01:16:49;8.37;;;3.73;;
3949;SDS011;53057;50.988;6.314;2022-07-17T01:19:16;10.03;;;3.10;;
3949;SDS011;53057;50.988;6.314;2022-07-17T01:21:44;12.20;;;3.00;;
3949;SDS011;53057;50.988;6.314;2022-07-17T01:24:14;5.60;;;2.83;;
3949;SDS011;53057;50.988;6.314;2022-07-17T01:26:53;13.10;;;2.90;;
3949;SDS011;53057;50.988;6.314;2022-07-17T01:29:37;5.20;;;3.00;;
3949;SDS011;53057;50.988;6.314;2022-07-17T01:32:05;6.60;;;3.03;;
3949;SDS011;53057;50.988;6.314;2022-07-17T01:34:32;12.70;;;3.83;;
3949;SDS011;53057;50.988;6.314;2022-07-17T01:37:01;10.20;;;3.67;;
3949;SDS011;53057;50.988;6.314;2022-07-17T01:39:28;7.50;;;4.27;;
3949;SDS011;53057;50.988;6.314;2022-07-17T01:42:14;8.13;;;3.60;;
3949;SDS011;53057;50.988;6.314;2022-07-17T01:44:41;18.40;;;3.90;;
3949;SDS011;53057;50.988;6.314;2022-07-17T01:47:13;5.63;;;3.30;;
3949;SDS011;53057;50.988;6.314;2022-07-17T01:49:45;4.57;;;3.40;;
3949;SDS011;53057;50.988;6.314;2022-07-17T01:52:13;16.17;;;4.23;;
3949;SDS011;53057;50.988;6.314;2022-07-17T01:54:42;8.37;;;3.40;;
3949;SDS011;53057;50.988;6.314;2022-07-17T01:57:13;9.97;;;3.50;;
3949;SDS011;53057;50.988;6.314;2022-07-17T01:59:43;10.70;;;3.20;;
3949;SDS011;53057;50.988;6.314;2022-07-17T02:02:11;11.40;;;4.70;;
3949;SDS011;53057;50.988;6.314;2022-07-17T02:04:43;17.57;;;5.73;;
3949;SDS011;53057;50.988;6.314;2022-07-17T02:07:13;15.60;;;3.50;;
3949;SDS011;53057;50.988;6.314;2022-07-17T02:09:42;23.60;;;6.23;;
3949;SDS011;53057;50.988;6.314;2022-07-17T02:12:11;8.03;;;3.87;;
3949;SDS011;53057;50.988;6.314;2022-07-17T02:14:43;13.20;;;3.33;;
3949;SDS011;53057;50.988;6.314;2022-07-17T02:17:13;11.10;;;3.83;;
3949;SDS011;53057;50.988;6.314;2022-07-17T02:19:43;7.77;;;3.87;;
3949;SDS011;53057;50.988;6.314;2022-07-17T02:22:12;6.47;;;3.00;;
3949;SDS011;53057;50.988;6.314;2022-07-17T02:29:05;8.80;;;3.43;;
3949;SDS011;53057;50.988;6.314;2022-07-17T02:31:35;16.77;;;5.00;;
3949;SDS011;53057;50.988;6.314;2022-07-17T02:34:04;11.83;;;3.40;;
3949;SDS011;53057;50.988;6.314;2022-07-17T02:36:31;6.03;;;4.30;;
3949;SDS011;53057;50.988;6.314;2022-07-17T02:39:00;9.97;;;6.60;;
3949;SDS011;53057;50.988;6.314;2022-07-17T02:41:31;16.43;;;5.00;;
3949;SDS011;53057;50.988;6.314;2022-07-17T02:44:01;14.40;;;5.33;;
3949;SDS011;53057;50.988;6.314;2022-07-17T02:46:33;7.37;;;4.77;;
3949;SDS011;53057;50.988;6.314;2022-07-17T02:49:03;10.97;;;4.90;;
3949;SDS011;53057;50.988;6.314;2022-07-17T02:51:35;13.37;;;3.97;;
3949;SDS011;53057;50.988;6.314;2022-07-17T02:54:04;8.57;;;3.87;;
3949;SDS011;53057;50.988;6.314;2022-07-17T02:56:33;12.90;;;4.60;;
3949;SDS011;53057;50.988;6.314;2022-07-17T02:59:03;8.20;;;5.00;;
3949;SDS011;53057;50.988;6.314;2022-07-17T03:01:35;6.40;;;3.53;;
3949;SDS011;53057;50.988;6.314;2022-07-17T03:04:10;5.00;;;4.03;;
3949;SDS011;53057;50.988;6.314;2022-07-17T03:06:42;20.67;;;4.33;;
3949;SDS011;53057;50.988;6.314;2022-07-17T03:09:17;4.47;;;3.80;;
3949;SDS011;53057;50.988;6.314;2022-07-17T03:11:46;12.50;;;4.43;;
3949;SDS011;53057;50.988;6.314;2022-07-17T03:14:25;8.37;;;4.90;;
3949;SDS011;53057;50.988;6.314;2022-07-17T03:16:58;6.90;;;3.90;;
3949;SDS011;53057;50.988;6.314;2022-07-17T03:19:29;5.83;;;3.20;;
3949;SDS011;53057;50.988;6.314;2022-07-17T03:22:03;14.13;;;4.10;;
3949;SDS011;53057;50.988;6.314;2022-07-17T03:32:04;8.33;;;5.10;;
3949;SDS011;53057;50.988;6.314;2022-07-17T03:34:34;11.10;;;4.93;;
3949;SDS011;53057;50.988;6.314;2022-07-17T03:37:32;13.20;;;4.77;;
3949;SDS011;53057;50.988;6.314;2022-07-17T03:40:06;10.53;;;4.87;;
3949;SDS011;53057;50.988;6.314;2022-07-17T03:42:54;13.73;;;5.80;;
3949;SDS011;53057;50.988;6.314;2022-07-17T03:45:34;13.43;;;4.67;;
3949;SDS011;53057;50.988;6.314;2022-07-17T03:48:17;11.97;;;5.00;;
3949;SDS011;53057;50.988;6.314;2022-07-17T03:51:30;9.73;;;3.33;;
3949;SDS011;53057;50.988;6.314;2022-07-17T03:54:20;8.20;;;4.23;;
3949;SDS011;53057;50.988;6.314;2022-07-17T03:57:03;12.27;;;4.40;;
3949;SDS011;53057;50.988;6.314;2022-07-17T04:04:32;9.20;;;4.73;;
3949;SDS011;53057;50.988;6.314;2022-07-17T04:07:20;6.03;;;4.60;;
3949;SDS011;53057;50.988;6.314;2022-07-17T04:10:00;13.97;;;5.60;;
3949;SDS011;53057;50.988;6.314;2022-07-17T04:12:47;12.37;;;5.33;;
3949;SDS011;53057;50.988;6.314;2022-07-17T04:15:37;11.87;;;5.43;;
3949;SDS011;53057;50.988;6.314;2022-07-17T04:18:39;14.97;;;4.97;;
3949;SDS011;53057;50.988;6.314;2022-07-17T04:21:14;5.67;;;3.90;;
3949;SDS011;53057;50.988;6.314;2022-07-17T04:28:16;9.80;;;3.90;;
3949;SDS011;53057;50.988;6.314;2022-07-17T04:52:17;11.30;;;4.47;;
3949;SDS011;53057;50.988;6.314;2022-07-17T04:55:05;6.97;;;4.77;;
3949;SDS011;53057;50.988;6.314;2022-07-17T04:58:15;19.70;;;5.00;;
3949;SDS011;53057;50.988;6.314;2022-07-17T05:01:11;15.33;;;5.00;;
3949;SDS011;53057;50.988;6.314;2022-07-17T05:07:51;10.43;;;4.63;;
3949;SDS011;53057;50.988;6.314;2022-07-17T05:13:52;7.03;;;4.40;;
3949;SDS011;53057;50.988;6.314;2022-07-17T05:29:39;11.37;;;4.70;;
3949;SDS011;53057;50.988;6.314;2022-07-17T05:32:48;7.53;;;3.93;;
3949;SDS011;53057;50.988;6.314;2022-07-17T05:35:33;12.80;;;4.90;;
3949;SDS011;53057;50.988;6.314;2022-07-17T05:38:01;4.90;;;3.67;;
3949;SDS011;53057;50.988;6.314;2022-07-17T05:40:31;8.40;;;3.80;;
3949;SDS011;53057;50.988;6.314;2022-07-17T05:43:01;10.73;;;4.67;;
3949;SDS011;53057;50.988;6.314;2022-07-17T05:45:33;20.93;;;5.87;;
3949;SDS011;53057;50.988;6.314;2022-07-17T05:51:30;8.90;;;3.90;;
3949;SDS011;53057;50.988;6.314;2022-07-17T05:54:11;9.00;;;3.90;;
3949;SDS011;53057;50.988;6.314;2022-07-17T05:56:39;5.33;;;3.60;;
3949;SDS011;53057;50.988;6.314;2022-07-17T05:59:10;11.90;;;3.83;;
3949;SDS011;53057;50.988;6.314;2022-07-17T06:05:35;19.87;;;3.70;;
3949;SDS011;53057;50.988;6.314;2022-07-17T06:08:13;9.07;;;2.83;;
3949;SDS011;53057;50.988;6.314;2022-07-17T06:11:12;11.60;;;3.03;;
3949;SDS011;53057;50.988;6.314;2022-07-17T06:17:25;19.83;;;4.20;;
3949;SDS011;53057;50.988;6.314;2022-07-17T06:20:02;9.27;;;3.27;;
3949;SDS011;53057;50.988;6.314;2022-07-17T06:22:51;5.73;;;3.00;;
3949;SDS011;53057;50.988;6.314;2022-07-17T06:29:36;9.17;;;3.73;;
3949;SDS011;53057;50.988;6.314;2022-07-17T06:45:01;18.37;;;3.70;;
3949;SDS011;53057;50.988;6.314;2022-07-17T07:01:58;8.83;;;2.73;;
3949;SDS011;53057;50.988;6.314;2022-07-17T07:04:25;8.90;;;3.00;;
3949;SDS011;53057;50.988;6.314;2022-07-17T07:10:12;7.30;;;2.77;;
3949;SDS011;53057;50.988;6.314;2022-07-17T07:12:39;12.10;;;3.40;;
3949;SDS011;53057;50.988;6.314;2022-07-17T07:15:33;9.97;;;3.40;;
3949;SDS011;53057;50.988;6.314;2022-07-17T07:18:03;11.60;;;2.80;;
3949;SDS011;53057;50.988;6.314;2022-07-17T07:21:34;15.73;;;4.30;;
3949;SDS011;53057;50.988;6.314;2022-07-17T07:28:28;7.67;;;3.73;;
3949;SDS011;53057;50.988;6.314;2022-07-17T07:30:55;5.80;;;2.10;;
3949;SDS011;53057;50.988;6.314;2022-07-17T07:33:24;11.43;;;3.40;;
3949;SDS011;53057;50.988;6.314;2022-07-17T07:35:51;9.30;;;2.50;;
3949;SDS011;53057;50.988;6.314;2022-07-17T07:38:19;7.30;;;2.00;;
3949;SDS011;53057;50.988;6.314;2022-07-17T07:40:45;10.03;;;2.40;;
3949;SDS011;53057;50.988;6.314;2022-07-17T07:43:18;13.90;;;2.40;;
3949;SDS011;53057;50.988;6.314;2022-07-17T07:45:45;5.57;;;2.27;;
3949;SDS011;53057;50.988;6.314;2022-07-17T07:48:13;8.40;;;2.70;;
3949;SDS011;53057;50.988;6.314;2022-07-17T07:50:40;5.63;;;2.00;;
3949;SDS011;53057;50.988;6.314;2022-07-17T07:53:10;11.83;;;2.17;;
3949;SDS011;53057;50.988;6.314;2022-07-17T07:55:37;5.93;;;2.97;;
3949;SDS011;53057;50.988;6.314;2022-07-17T07:58:05;7.23;;;2.00;;
3949;SDS011;53057;50.988;6.314;2022-07-17T08:00:33;4.40;;;1.90;;
3949;SDS011;53057;50.988;6.314;2022-07-17T08:03:00;5.40;;;1.90;;
3949;SDS011;53057;50.988;6.314;2022-07-17T08:05:27;2.60;;;2.07;;
3949;SDS011;53057;50.988;6.314;2022-07-17T08:07:54;8.83;;;2.47;;
3949;SDS011;53057;50.988;6.314;2022-07-17T08:10:21;7.23;;;2.13;;
3949;SDS011;53057;50.988;6.314;2022-07-17T08:12:48;5.83;;;2.20;;
3949;SDS011;53057;50.988;6.314;2022-07-17T08:15:18;5.43;;;2.23;;
3949;SDS011;53057;50.988;6.314;2022-07-17T08:17:46;4.93;;;1.70;;
3949;SDS011;53057;50.988;6.314;2022-07-17T08:20:13;8.60;;;1.83;;
3949;SDS011;53057;50.988;6.314;2022-07-17T08:22:41;8.50;;;1.60;;
3949;SDS011;53057;50.988;6.314;2022-07-17T08:25:31;2.40;;;1.53;;
3949;SDS011;53057;50.988;6.314;2022-07-17T08:28:04;9.63;;;2.30;;
3949;SDS011;53057;50.988;6.314;2022-07-17T08:30:31;9.20;;;1.67;;
3949;SDS011;53057;50.988;6.314;2022-07-17T08:33:21;3.93;;;1.53;;
3949;SDS011;53057;50.988;6.314;2022-07-17T08:35:48;10.83;;;2.00;;
3949;SDS011;53057;50.988;6.314;2022-07-17T08:38:17;7.03;;;1.47;;
3949;SDS011;53057;50.988;6.314;2022-07-17T08:40:45;2.60;;;1.40;;
3949;SDS011;53057;50.988;6.314;2022-07-17T08:43:17;10.37;;;2.20;;
3949;SDS011;53057;50.988;6.314;2022-07-17T08:45:45;4.70;;;1.70;;
3949;SDS011;53057;50.988;6.314;2022-07-17T08:48:15;5.90;;;2.13;;
3949;SDS011;53057;50.988;6.314;2022-07-17T08:50:43;15.13;;;2.50;;
3949;SDS011;53057;50.988;6.314;2022-07-17T08:53:21;5.50;;;2.10;;
3949;SDS011;53057;50.988;6.314;2022-07-17T08:55:49;4.23;;;1.90;;
3949;SDS011;53057;50.988;6.314;2022-07-17T08:58:32;2.53;;;1.67;;
3949;SDS011;53057;50.988;6.314;2022-07-17T09:01:04;4.50;;;1.50;;
3949;SDS011;53057;50.988;6.314;2022-07-17T09:03:34;2.73;;;2.00;;
3949;SDS011;53057;50.988;6.314;2022-07-17T09:06:19;5.13;;;1.47;;
3949;SDS011;53057;50.988;6.314;2022-07-17T09:08:46;11.23;;;1.70;;
3949;SDS011;53057;50.988;6.314;2022-07-17T09:11:13;6.37;;;2.00;;
3949;SDS011;53057;50.988;6.314;2022-07-17T09:13:45;3.53;;;1.40;;
3949;SDS011;53057;50.988;6.314;2022-07-17T09:16:12;13.70;;;2.00;;
3949;SDS011;53057;50.988;6.314;2022-07-17T09:18:48;5.40;;;1.70;;
3949;SDS011;53057;50.988;6.314;2022-07-17T09:30:00;5.27;;;1.80;;
3949;SDS011;53057;50.988;6.314;2022-07-17T09:32:29;4.50;;;1.53;;
3949;SDS011;53057;50.988;6.314;2022-07-17T09:35:38;2.90;;;1.53;;
3949;SDS011;53057;50.988;6.314;2022-07-17T09:38:12;5.43;;;1.60;;
3949;SDS011;53057;50.988;6.314;2022-07-17T09:40:47;3.70;;;1.80;;
3949;SDS011;53057;50.988;6.314;2022-07-17T09:43:49;1.53;;;1.20;;
3949;SDS011;53057;50.988;6.314;2022-07-17T09:46:25;6.33;;;1.93;;
3949;SDS011;53057;50.988;6.314;2022-07-17T09:49:16;7.20;;;1.50;;
3949;SDS011;53057;50.988;6.314;2022-07-17T09:51:44;3.00;;;1.47;;
3949;SDS011;53057;50.988;6.314;2022-07-17T09:54:12;3.97;;;1.70;;
3949;SDS011;53057;50.988;6.314;2022-07-17T09:56:39;4.57;;;1.60;;
3949;SDS011;53057;50.988;6.314;2022-07-17T09:59:09;3.17;;;1.50;;
3949;SDS011;53057;50.988;6.314;2022-07-17T10:01:37;3.30;;;1.57;;
3949;SDS011;53057;50.988;6.314;2022-07-17T10:04:05;2.67;;;1.70;;
3949;SDS011;53057;50.988;6.314;2022-07-17T10:06:32;9.37;;;2.17;;
3949;SDS011;53057;50.988;6.314;2022-07-17T10:08:59;14.27;;;1.80;;
3949;SDS011;53057;50.988;6.314;2022-07-17T10:11:30;2.60;;;1.80;;
3949;SDS011;53057;50.988;6.314;2022-07-17T10:14:00;2.60;;;1.60;;
3949;SDS011;53057;50.988;6.314;2022-07-17T10:16:29;6.03;;;2.50;;
3949;SDS011;53057;50.988;6.314;2022-07-17T10:18:57;6.97;;;1.87;;
3949;SDS011;53057;50.988;6.314;2022-07-17T10:21:25;6.67;;;2.00;;
3949;SDS011;53057;50.988;6.314;2022-07-17T10:30:51;7.40;;;1.50;;
3949;SDS011;53057;50.988;6.314;2022-07-17T10:33:19;3.30;;;1.93;;
3949;SDS011;53057;50.988;6.314;2022-07-17T10:35:47;4.40;;;1.67;;
3949;SDS011;53057;50.988;6.314;2022-07-17T10:38:15;7.13;;;1.77;;
3949;SDS011;53057;50.988;6.314;2022-07-17T10:45:08;2.27;;;2.07;;
3949;SDS011;53057;50.988;6.314;2022-07-17T10:47:45;5.23;;;1.60;;
3949;SDS011;53057;50.988;6.314;2022-07-17T10:50:13;3.33;;;1.63;;
3949;SDS011;53057;50.988;6.314;2022-07-17T10:52:40;3.17;;;1.63;;
3949;SDS011;53057;50.988;6.314;2022-07-17T10:55:17;2.77;;;1.70;;
3949;SDS011;53057;50.988;6.314;2022-07-17T10:57:44;5.30;;;1.57;;
3949;SDS011;53057;50.988;6.314;2022-07-17T11:00:12;6.13;;;2.47;;
3949;SDS011;53057;50.988;6.314;2022-07-17T11:02:43;2.40;;;1.63;;
3949;SDS011;53057;50.988;6.314;2022-07-17T11:05:11;6.40;;;1.77;;
3949;SDS011;53057;50.988;6.314;2022-07-17T11:07:49;3.17;;;1.53;;
3949;SDS011;53057;50.988;6.314;2022-07-17T11:10:16;4.07;;;1.70;;
3949;SDS011;53057;50.988;6.314;2022-07-17T11:12:43;3.13;;;1.50;;
3949;SDS011;53057;50.988;6.314;2022-07-17T11:19:38;3.27;;;1.37;;
3949;SDS011;53057;50.988;6.314;2022-07-17T11:22:17;13.90;;;1.80;;
3949;SDS011;53057;50.988;6.314;2022-07-17T11:35:47;4.13;;;1.50;;
3949;SDS011;53057;50.988;6.314;2022-07-17T11:38:14;6.33;;;2.60;;
3949;SDS011;53057;50.988;6.314;2022-07-17T11:40:47;4.50;;;1.57;;
3949;SDS011;53057;50.988;6.314;2022-07-17T11:43:15;5.50;;;2.30;;
3949;SDS011;53057;50.988;6.314;2022-07-17T11:45:42;11.33;;;2.77;;
3949;SDS011;53057;50.988;6.314;2022-07-17T11:51:50;3.33;;;2.13;;
3949;SDS011;53057;50.988;6.314;2022-07-17T11:54:17;6.13;;;1.70;;
3949;SDS011;53057;50.988;6.314;2022-07-17T11:56:52;3.50;;;1.93;;
3949;SDS011;53057;50.988;6.314;2022-07-17T11:59:31;7.37;;;2.13;;
3949;SDS011;53057;50.988;6.314;2022-07-17T12:02:09;10.63;;;1.87;;
3949;SDS011;53057;50.988;6.314;2022-07-17T12:04:49;3.20;;;1.70;;
3949;SDS011;53057;50.988;6.314;2022-07-17T12:10:16;5.20;;;1.40;;
3949;SDS011;53057;50.988;6.314;2022-07-17T12:13:40;4.87;;;1.60;;
3949;SDS011;53057;50.988;6.314;2022-07-17T12:38:09;8.73;;;1.80;;
3949;SDS011;53057;50.988;6.314;2022-07-17T12:43:31;1.37;;;1.20;;
3949;SDS011;53057;50.988;6.314;2022-07-17T12:45:59;1.57;;;1.17;;
3949;SDS011;53057;50.988;6.314;2022-07-17T12:48:41;3.43;;;1.40;;
3949;SDS011;53057;50.988;6.314;2022-07-17T12:51:11;4.63;;;1.40;;
3949;SDS011;53057;50.988;6.314;2022-07-17T12:53:42;3.37;;;1.40;;
3949;SDS011;53057;50.988;6.314;2022-07-17T13:23:48;2.00;;;1.20;;
3949;SDS011;53057;50.988;6.314;2022-07-17T13:36:22;3.83;;;1.53;;
3949;SDS011;53057;50.988;6.314;2022-07-17T13:38:49;1.50;;;1.40;;
3949;SDS011;53057;50.988;6.314;2022-07-17T13:41:16;5.30;;;2.13;;
3949;SDS011;53057;50.988;6.314;2022-07-17T13:43:43;1.40;;;1.23;;
3949;SDS011;53057;50.988;6.314;2022-07-17T13:46:11;3.30;;;1.10;;
3949;SDS011;53057;50.988;6.314;2022-07-17T13:48:38;2.70;;;2.00;;
3949;SDS011;53057;50.988;6.314;2022-07-17T13:51:06;1.53;;;1.33;;
3949;SDS011;53057;50.988;6.314;2022-07-17T13:53:37;3.83;;;1.37;;
3949;SDS011;53057;50.988;6.314;2022-07-17T13:56:08;9.30;;;2.90;;
3949;SDS011;53057;50.988;6.314;2022-07-17T13:58:41;1.90;;;1.80;;
3949;SDS011;53057;50.988;6.314;2022-07-17T14:01:14;5.07;;;1.33;;
3949;SDS011;53057;50.988;6.314;2022-07-17T14:03:48;2.60;;;1.43;;
3949;SDS011;53057;50.988;6.314;2022-07-17T14:53:37;10.70;;;1.80;;
3949;SDS011;53057;50.988;6.314;2022-07-17T16:09:08;7.13;;;1.67;;
3949;SDS011;53057;50.988;6.314;2022-07-17T16:11:44;1.90;;;1.53;;
3949;SDS011;53057;50.988;6.314;2022-07-17T16:14:37;4.53;;;1.50;;
3949;SDS011;53057;50.988;6.314;2022-07-17T16:17:04;3.67;;;1.80;;
3949;SDS011;53057;50.988;6.314;2022-07-17T16:19:31;1.37;;;1.10;;
3949;SDS011;53057;50.988;6.314;2022-07-17T16:21:58;3.03;;;1.77;;
3949;SDS011;53057;50.988;6.314;2022-07-17T16:29:02;1.83;;;1.30;;
3949;SDS011;53057;50.988;6.314;2022-07-17T16:52:20;5.10;;;1.57;;
3949;SDS011;53057;50.988;6.314;2022-07-17T16:54:50;2.13;;;1.43;;
3949;SDS011;53057;50.988;6.314;2022-07-17T16:57:17;3.60;;;2.17;;
3949;SDS011;53057;50.988;6.314;2022-07-17T16:59:45;7.13;;;2.23;;
3949;SDS011;53057;50.988;6.314;2022-07-17T17:02:13;5.67;;;2.80;;
3949;SDS011;53057;50.988;6.314;2022-07-17T17:04:40;10.43;;;2.17;;
3949;SDS011;53057;50.988;6.314;2022-07-17T17:07:07;3.40;;;1.70;;
3949;SDS011;53057;50.988;6.314;2022-07-17T17:09:35;2.80;;;1.73;;
3949;SDS011;53057;50.988;6.314;2022-07-17T17:12:02;3.57;;;2.10;;
3949;SDS011;53057;50.988;6.314;2022-07-17T17:14:37;3.63;;;2.07;;
3949;SDS011;53057;50.988;6.314;2022-07-17T17:17:04;4.63;;;2.10;;
3949;SDS011;53057;50.988;6.314;2022-07-17T17:19:31;3.07;;;1.70;;
3949;SDS011;53057;50.988;6.314;2022-07-17T17:22:05;5.63;;;1.80;;
3949;SDS011;53057;50.988;6.314;2022-07-17T17:24:32;2.53;;;1.57;;
3949;SDS011;53057;50.988;6.314;2022-07-17T17:26:59;6.97;;;2.00;;
3949;SDS011;53057;50.988;6.314;2022-07-17T17:29:26;5.97;;;2.77;;
3949;SDS011;53057;50.988;6.314;2022-07-17T17:31:53;8.10;;;1.90;;
3949;SDS011;53057;50.988;6.314;2022-07-17T17:34:20;5.10;;;1.63;;
3949;SDS011;53057;50.988;6.314;2022-07-17T17:36:47;6.13;;;2.50;;
3949;SDS011;53057;50.988;6.314;2022-07-17T17:39:14;6.63;;;3.00;;
3949;SDS011;53057;50.988;6.314;2022-07-17T17:41:41;3.90;;;2.27;;
3949;SDS011;53057;50.988;6.314;2022-07-17T17:44:08;7.60;;;2.60;;
3949;SDS011;53057;50.988;6.314;2022-07-17T17:46:35;5.10;;;2.30;;
3949;SDS011;53057;50.988;6.314;2022-07-17T17:49:03;4.40;;;2.30;;
3949;SDS011;53057;50.988;6.314;2022-07-17T17:51:29;2.43;;;2.10;;
3949;SDS011;53057;50.988;6.314;2022-07-17T17:53:56;2.10;;;1.73;;
3949;SDS011;53057;50.988;6.314;2022-07-17T17:56:23;4.30;;;1.70;;
3949;SDS011;53057;50.988;6.314;2022-07-17T17:58:50;7.33;;;2.07;;
3949;SDS011;53057;50.988;6.314;2022-07-17T18:01:21;21.33;;;2.30;;
3949;SDS011;53057;50.988;6.314;2022-07-17T18:03:48;9.73;;;2.37;;
3949;SDS011;53057;50.988;6.314;2022-07-17T18:06:21;16.83;;;2.67;;
3949;SDS011;53057;50.988;6.314;2022-07-17T18:09:09;10.77;;;2.27;;
3949;SDS011;53057;50.988;6.314;2022-07-17T18:14:44;10.63;;;2.77;;
3949;SDS011;53057;50.988;6.314;2022-07-17T18:17:31;8.43;;;2.70;;
3949;SDS011;53057;50.988;6.314;2022-07-17T18:20:18;4.23;;;2.50;;
3949;SDS011;53057;50.988;6.314;2022-07-17T19:12:38;10.67;;;2.80;;
3949;SDS011;53057;50.988;6.314;2022-07-17T19:15:08;14.53;;;2.70;;
3949;SDS011;53057;50.988;6.314;2022-07-17T19:18:10;7.77;;;2.20;;
3949;SDS011;53057;50.988;6.314;2022-07-17T19:20:37;9.33;;;2.80;;
3949;SDS011;53057;50.988;6.314;2022-07-17T19:23:04;5.90;;;2.10;;
3949;SDS011;53057;50.988;6.314;2022-07-17T19:33:18;68.20;;;6.10;;
3949;SDS011;53057;50.988;6.314;2022-07-17T19:35:44;61.70;;;8.07;;
3949;SDS011;53057;50.988;6.314;2022-07-17T19:38:13;64.73;;;10.67;;
3949;SDS011;53057;50.988;6.314;2022-07-17T19:40:40;44.03;;;7.97;;
3949;SDS011;53057;50.988;6.314;2022-07-17T19:47:28;19.77;;;4.90;;
3949;SDS011;53057;50.988;6.314;2022-07-17T19:49:58;23.97;;;5.17;;
3949;SDS011;53057;50.988;6.314;2022-07-17T19:52:26;16.57;;;3.90;;
3949;SDS011;53057;50.988;6.314;2022-07-17T19:55:01;23.47;;;4.93;;
3949;SDS011;53057;50.988;6.314;2022-07-17T20:04:25;55.37;;;9.73;;
3949;SDS011;53057;50.988;6.314;2022-07-17T20:11:43;79.10;;;9.50;;
3949;SDS011;53057;50.988;6.314;2022-07-17T20:15:32;49.80;;;8.60;;
3949;SDS011;53057;50.988;6.314;2022-07-17T20:18:13;69.13;;;9.83;;
3949;SDS011;53057;50.988;6.314;2022-07-17T20:20:40;81.90;;;8.83;;
3949;SDS011;53057;50.988;6.314;2022-07-17T20:23:08;32.27;;;6.43;;
3949;SDS011;53057;50.988;6.314;2022-07-17T20:38:45;41.67;;;7.50;;
3949;SDS011;53057;50.988;6.314;2022-07-17T20:41:13;29.60;;;7.40;;
3949;SDS011;53057;50.988;6.314;2022-07-17T20:43:47;34.63;;;6.50;;
3949;SDS011;53057;50.988;6.314;2022-07-17T20:47:16;22.60;;;5.33;;
3949;SDS011;53057;50.988;6.314;2022-07-17T20:49:44;27.87;;;6.43;;
3949;SDS011;53057;50.988;6.314;2022-07-17T20:52:13;38.20;;;7.67;;
3949;SDS011;53057;50.988;6.314;2022-07-17T20:54:48;39.27;;;9.90;;
3949;SDS011;53057;50.988;6.314;2022-07-17T20:57:21;42.43;;;9.47;;
3949;SDS011;53057;50.988;6.314;2022-07-17T21:00:23;51.13;;;8.33;;
3949;SDS011;53057;50.988;6.314;2022-07-17T21:02:50;48.00;;;8.97;;
3949;SDS011;53057;50.988;6.314;2022-07-17T21:05:19;40.47;;;7.47;;
3949;SDS011;53057;50.988;6.314;2022-07-17T21:07:49;45.67;;;7.70;;
3949;SDS011;53057;50.988;6.314;2022-07-17T21:10:20;24.80;;;6.03;;
3949;SDS011;53057;50.988;6.314;2022-07-17T21:12:47;22.73;;;6.13;;
3949;SDS011;53057;50.988;6.314;2022-07-17T21:15:18;32.97;;;8.43;;
3949;SDS011;53057;50.988;6.314;2022-07-17T21:17:45;15.07;;;5.87;;
3949;SDS011;53057;50.988;6.314;2022-07-17T21:20:18;15.60;;;5.20;;
3949;SDS011;53057;50.988;6.314;2022-07-17T21:22:59;25.90;;;5.93;;
3949;SDS011;53057;50.988;6.314;2022-07-17T21:25:31;16.70;;;4.83;;
3949;SDS011;53057;50.988;6.314;2022-07-17T21:31:52;14.83;;;5.17;;
3949;SDS011;53057;50.988;6.314;2022-07-17T21:34:23;14.83;;;4.67;;
3949;SDS011;53057;50.988;6.314;2022-07-17T21:36:49;28.60;;;5.50;;
3949;SDS011;53057;50.988;6.314;2022-07-17T21:39:16;12.90;;;5.50;;
3949;SDS011;53057;50.988;6.314;2022-07-17T21:41:44;16.57;;;5.13;;
3949;SDS011;53057;50.988;6.314;2022-07-17T21:44:10;24.50;;;4.50;;
3949;SDS011;53057;50.988;6.314;2022-07-17T21:46:37;13.47;;;4.97;;
3949;SDS011;53057;50.988;6.314;2022-07-17T21:49:04;23.87;;;5.70;;
3949;SDS011;53057;50.988;6.314;2022-07-17T21:51:32;24.97;;;5.57;;
3949;SDS011;53057;50.988;6.314;2022-07-17T21:53:58;12.73;;;4.70;;
3949;SDS011;53057;50.988;6.314;2022-07-17T21:56:25;13.63;;;5.07;;
3949;SDS011;53057;50.988;6.314;2022-07-17T21:58:52;13.73;;;4.60;;
3949;SDS011;53057;50.988;6.314;2022-07-17T22:01:20;21.60;;;5.20;;
3949;SDS011;53057;50.988;6.314;2022-07-17T22:04:11;12.37;;;4.80;;
3949;SDS011;53057;50.988;6.314;2022-07-17T22:06:45;20.07;;;5.57;;
3949;SDS011;53057;50.988;6.314;2022-07-17T22:09:29;13.53;;;4.80;;
3949;SDS011;53057;50.988;6.314;2022-07-17T22:11:58;21.03;;;5.50;;
3949;SDS011;53057;50.988;6.314;2022-07-17T22:14:25;15.63;;;4.73;;
3949;SDS011;53057;50.988;6.314;2022-07-17T22:16:54;20.53;;;4.37;;
3949;SDS011;53057;50.988;6.314;2022-07-17T22:20:05;22.30;;;4.67;;
3949;SDS011;53057;50.988;6.314;2022-07-17T22:23:08;7.40;;;4.00;;
3949;SDS011;53057;50.988;6.314;2022-07-17T22:37:56;18.33;;;4.67;;
3949;SDS011;53057;50.988;6.314;2022-07-17T22:40:24;17.57;;;5.33;;
3949;SDS011;53057;50.988;6.314;2022-07-17T22:47:06;9.13;;;4.33;;
3949;SDS011;53057;50.988;6.314;2022-07-17T22:49:35;40.43;;;5.00;;
3949;SDS011;53057;50.988;6.314;2022-07-17T22:52:02;27.57;;;5.53;;
3949;SDS011;53057;50.988;6.314;2022-07-17T22:54:30;14.50;;;4.60;;
3949;SDS011;53057;50.988;6.314;2022-07-17T22:56:58;17.90;;;7.00;;
3949;SDS011;53057;50.988;6.314;2022-07-17T22:59:25;22.40;;;5.57;;
3949;SDS011;53057;50.988;6.314;2022-07-17T23:01:55;22.83;;;6.03;;
3949;SDS011;53057;50.988;6.314;2022-07-17T23:04:39;24.37;;;5.30;;
3949;SDS011;53057;50.988;6.314;2022-07-17T23:07:07;18.83;;;6.30;;
3949;SDS011;53057;50.988;6.314;2022-07-17T23:09:34;8.90;;;4.47;;
3949;SDS011;53057;50.988;6.314;2022-07-17T23:12:01;12.40;;;4.50;;
3949;SDS011;53057;50.988;6.314;2022-07-17T23:14:44;8.47;;;4.17;;
3949;SDS011;53057;50.988;6.314;2022-07-17T23:17:11;10.93;;;4.00;;
3949;SDS011;53057;50.988;6.314;2022-07-17T23:19:43;15.17;;;4.10;;
3949;SDS011;53057;50.988;6.314;2022-07-17T23:22:13;16.43;;;3.93;;
3949;SDS011;53057;50.988;6.314;2022-07-17T23:33:25;7.23;;;3.50;;
3949;SDS011;53057;50.988;6.314;2022-07-17T23:35:55;29.27;;;4.90;;
3949;SDS011;53057;50.988;6.314;2022-07-17T23:38:31;16.63;;;4.47;;
3949;SDS011;53057;50.988;6.314;2022-07-17T23:41:02;6.97;;;3.50;;